Time,TemperatureF,DewpointF,PressureIn,WindDirection,WindDirectionDegrees,WindSpeedMPH,WindSpeedGustMPH,Humidity,HourlyPrecipIn,Conditions,Clouds,dailyrainin,SoftwareType,DateUTC
2017-10-19 00:05:00,57.6,38.6,29.87,SSE,147,0.0,0.0,49,0.00,,,0.00,Wunderground v.1.15,2017-10-19 07:05:00,
2017-10-19 00:15:00,56.3,38.4,29.87,SSE,147,0.0,0.0,51,0.00,,,0.00,Wunderground v.1.15,2017-10-19 07:15:00,
2017-10-19 00:20:00,55.6,38.2,29.87,SSE,147,0.0,1.0,52,0.00,,,0.00,Wunderground v.1.15,2017-10-19 07:20:00,
2017-10-19 00:30:00,54.9,39.0,29.88,SSE,150,0.0,0.0,55,0.00,,,0.00,Wunderground v.1.15,2017-10-19 07:30:00,
2017-10-19 00:40:00,54.1,39.2,29.88,SSE,150,0.0,0.0,57,0.00,,,0.00,Wunderground v.1.15,2017-10-19 07:40:00,
2017-10-19 00:50:00,53.2,39.7,29.88,SSE,150,0.0,0.0,60,0.00,,,0.00,Wunderground v.1.15,2017-10-19 07:50:00,
2017-10-19 01:00:00,52.1,39.5,29.88,SSE,150,0.0,0.0,62,0.00,,,0.00,Wunderground v.1.15,2017-10-19 08:00:00,
2017-10-19 01:05:00,51.6,39.8,29.89,SSE,150,0.0,0.0,64,0.00,,,0.00,Wunderground v.1.15,2017-10-19 08:05:00,
2017-10-19 01:15:00,50.7,39.0,29.89,SSE,150,0.0,1.0,64,0.00,,,0.00,Wunderground v.1.15,2017-10-19 08:15:00,
2017-10-19 01:25:00,49.7,38.4,29.89,SSE,150,0.0,1.0,65,0.00,,,0.00,Wunderground v.1.15,2017-10-19 08:25:00,
2017-10-19 01:30:00,49.4,38.1,29.89,SSE,150,0.0,0.0,65,0.00,,,0.00,Wunderground v.1.15,2017-10-19 08:30:00,
2017-10-19 01:40:00,49.3,37.2,29.88,SSE,150,0.0,0.0,63,0.00,,,0.00,Wunderground v.1.15,2017-10-19 08:40:00,
2017-10-19 01:50:00,49.4,37.3,29.89,SSE,150,0.0,0.0,63,0.00,,,0.00,Wunderground v.1.15,2017-10-19 08:50:00,
2017-10-19 01:55:00,49.0,37.3,29.89,SSE,150,0.0,0.0,64,0.00,,,0.00,Wunderground v.1.15,2017-10-19 08:55:00,
2017-10-19 02:05:00,48.6,37.0,29.89,SSE,150,0.0,0.0,64,0.00,,,0.00,Wunderground v.1.15,2017-10-19 09:05:00,
2017-10-19 02:15:00,49.1,37.8,29.89,SSE,150,0.0,0.0,65,0.00,,,0.00,Wunderground v.1.15,2017-10-19 09:15:00,
2017-10-19 02:20:00,49.4,38.5,29.89,SSE,150,0.0,0.0,66,0.00,,,0.00,Wunderground v.1.15,2017-10-19 09:20:00,
2017-10-19 02:30:00,49.4,38.5,29.89,SSE,150,0.0,0.0,66,0.00,,,0.00,Wunderground v.1.15,2017-10-19 09:30:00,
2017-10-19 02:40:00,48.4,38.7,29.88,SSE,150,0.0,0.0,69,0.00,,,0.00,Wunderground v.1.15,2017-10-19 09:40:00,
2017-10-19 02:45:00,48.9,40.3,29.89,SSE,148,0.0,0.0,72,0.00,,,0.00,Wunderground v.1.15,2017-10-19 09:45:00,
2017-10-19 02:55:00,50.5,41.1,29.88,SSE,148,0.0,0.0,70,0.00,,,0.00,Wunderground v.1.15,2017-10-19 09:55:00,
2017-10-19 03:05:00,49.1,37.0,29.88,SSE,148,0.0,0.0,63,0.00,,,0.00,Wunderground v.1.15,2017-10-19 10:05:00,
2017-10-19 03:10:00,48.3,37.8,29.88,SSE,148,0.0,0.0,67,0.00,,,0.00,Wunderground v.1.15,2017-10-19 10:10:00,
2017-10-19 03:20:00,47.4,37.0,29.88,SSE,148,0.0,0.0,67,0.00,,,0.00,Wunderground v.1.15,2017-10-19 10:20:00,
2017-10-19 03:30:00,46.4,36.4,29.88,SSE,148,0.0,0.0,68,0.00,,,0.00,Wunderground v.1.15,2017-10-19 10:30:00,
2017-10-19 03:35:00,46.1,37.2,29.88,SSE,148,0.0,0.0,71,0.00,,,0.00,Wunderground v.1.15,2017-10-19 10:35:00,
2017-10-19 03:45:00,46.5,38.7,29.88,SSE,148,0.0,0.0,74,0.00,,,0.00,Wunderground v.1.15,2017-10-19 10:45:00,
2017-10-19 03:55:00,47.6,40.4,29.88,SSE,155,0.0,0.0,76,0.00,,,0.00,Wunderground v.1.15,2017-10-19 10:55:00,
2017-10-19 04:00:00,48.2,40.6,29.87,SSE,163,0.0,4.0,75,0.00,,,0.00,Wunderground v.1.15,2017-10-19 11:00:00,
2017-10-19 04:10:00,49.1,41.5,29.87,South,180,0.0,0.0,75,0.00,,,0.00,Wunderground v.1.15,2017-10-19 11:10:00,
2017-10-19 04:20:00,49.1,41.5,29.87,South,180,0.0,0.0,75,0.00,,,0.00,Wunderground v.1.15,2017-10-19 11:20:00,
2017-10-19 04:30:00,49.8,42.2,29.87,South,180,0.0,0.0,75,0.00,,,0.00,Wunderground v.1.15,2017-10-19 11:30:00,
2017-10-19 04:40:00,50.3,42.0,29.88,SW,223,0.0,0.0,73,0.00,,,0.00,Wunderground v.1.15,2017-10-19 11:40:00,
2017-10-19 04:50:00,50.6,42.3,29.88,SW,216,0.0,1.0,73,0.00,,,0.00,Wunderground v.1.15,2017-10-19 11:50:00,
2017-10-19 04:55:00,51.1,42.4,29.88,SW,215,1.0,1.0,72,0.00,,,0.00,Wunderground v.1.15,2017-10-19 11:55:00,
2017-10-19 05:05:00,50.9,42.2,29.88,SW,232,2.0,2.0,72,0.00,,,0.00,Wunderground v.1.15,2017-10-19 12:05:00,
2017-10-19 05:15:00,50.5,41.8,29.88,SW,232,0.0,1.0,72,0.00,,,0.00,Wunderground v.1.15,2017-10-19 12:15:00,
2017-10-19 05:25:00,50.4,42.1,29.88,SW,220,0.0,0.0,73,0.00,,,0.00,Wunderground v.1.15,2017-10-19 12:25:00,
2017-10-19 05:35:00,50.8,42.5,29.88,SSE,167,0.0,4.0,73,0.00,,,0.00,Wunderground v.1.15,2017-10-19 12:35:00,
2017-10-19 05:45:00,52.6,43.1,29.88,SSE,158,3.0,5.0,70,0.00,,,0.00,Wunderground v.1.15,2017-10-19 12:45:00,
2017-10-19 05:55:00,54.0,43.7,29.89,SSE,151,4.0,4.0,68,0.00,,,0.00,Wunderground v.1.15,2017-10-19 12:55:00,
2017-10-19 06:00:00,54.2,43.9,29.88,SSW,194,3.0,3.0,68,0.00,,,0.00,Wunderground v.1.15,2017-10-19 13:00:00,
2017-10-19 06:10:00,54.2,43.9,29.89,SSW,207,4.0,9.0,68,0.00,,,0.00,Wunderground v.1.15,2017-10-19 13:10:00,
2017-10-19 06:15:00,54.1,44.2,29.89,SSW,193,4.0,9.0,69,0.00,,,0.00,Wunderground v.1.15,2017-10-19 13:15:00,
2017-10-19 06:25:00,53.6,44.0,29.89,South,179,3.0,4.0,70,0.00,,,0.00,Wunderground v.1.15,2017-10-19 13:25:00,
2017-10-19 06:35:00,53.5,44.3,29.89,SSW,198,3.0,4.0,71,0.00,,,0.00,Wunderground v.1.15,2017-10-19 13:35:00,
2017-10-19 06:40:00,53.5,44.3,29.89,SSE,162,3.0,3.0,71,0.00,,,0.00,Wunderground v.1.15,2017-10-19 13:40:00,
2017-10-19 06:50:00,53.5,44.3,29.89,South,169,4.0,4.0,71,0.00,,,0.00,Wunderground v.1.15,2017-10-19 13:50:00,
2017-10-19 07:00:00,53.9,44.0,29.89,SE,144,4.0,4.0,69,0.00,,,0.00,Wunderground v.1.15,2017-10-19 14:00:00,
2017-10-19 07:05:00,54.0,44.1,29.89,SE,133,3.0,5.0,69,0.00,,,0.00,Wunderground v.1.15,2017-10-19 14:05:00,
2017-10-19 07:15:00,54.1,44.5,29.89,South,169,4.0,6.0,70,0.00,,,0.00,Wunderground v.1.15,2017-10-19 14:15:00,
2017-10-19 07:25:00,53.8,45.0,29.89,SSE,160,5.0,5.0,72,0.00,,,0.00,Wunderground v.1.15,2017-10-19 14:25:00,
2017-10-19 07:30:00,53.5,45.1,29.89,SSE,153,5.0,5.0,73,0.00,,,0.00,Wunderground v.1.15,2017-10-19 14:30:00,
2017-10-19 07:40:00,53.4,45.3,29.89,SE,144,4.0,4.0,74,0.00,,,0.00,Wunderground v.1.15,2017-10-19 14:40:00,
2017-10-19 07:50:00,53.7,45.6,29.89,South,191,5.0,5.0,74,0.00,,,0.00,Wunderground v.1.15,2017-10-19 14:50:00,
2017-10-19 07:55:00,53.7,45.6,29.89,South,189,3.0,5.0,74,0.00,,,0.00,Wunderground v.1.15,2017-10-19 14:55:00,
2017-10-19 08:05:00,54.1,46.0,29.90,South,186,3.0,7.0,74,0.00,,,0.00,Wunderground v.1.15,2017-10-19 15:05:00,
2017-10-19 08:15:00,54.4,46.3,29.90,South,181,3.0,5.0,74,0.00,,,0.00,Wunderground v.1.15,2017-10-19 15:15:00,
2017-10-19 08:20:00,54.4,45.9,29.91,WSW,253,4.0,4.0,73,0.00,,,0.00,Wunderground v.1.15,2017-10-19 15:20:00,
2017-10-19 08:30:00,52.8,45.1,29.91,WSW,240,2.0,8.0,75,0.00,,,0.00,Wunderground v.1.15,2017-10-19 15:30:00,
2017-10-19 08:40:00,51.5,44.9,29.91,SW,227,3.0,3.0,78,0.00,,,0.00,Wunderground v.1.15,2017-10-19 15:40:00,
2017-10-19 08:45:00,51.5,45.2,29.91,SW,232,2.0,3.0,79,0.00,,,0.00,Wunderground v.1.15,2017-10-19 15:45:00,
2017-10-19 08:55:00,52.1,45.8,29.90,SSW,194,2.0,3.0,79,0.00,,,0.00,Wunderground v.1.15,2017-10-19 15:55:00,
2017-10-19 09:05:00,53.3,46.6,29.90,SSW,196,2.0,3.0,78,0.00,,,0.00,Wunderground v.1.15,2017-10-19 16:05:00,
2017-10-19 09:10:00,53.6,46.9,29.90,South,172,3.0,3.0,78,0.00,,,0.00,Wunderground v.1.15,2017-10-19 16:10:00,
2017-10-19 09:20:00,54.4,47.3,29.90,SSW,205,3.0,4.0,77,0.00,,,0.00,Wunderground v.1.15,2017-10-19 16:20:00,
2017-10-19 09:30:00,55.8,48.0,29.91,SW,219,3.0,3.0,75,0.00,,,0.00,Wunderground v.1.15,2017-10-19 16:30:00,
2017-10-19 09:35:00,56.8,48.2,29.91,WSW,240,3.0,5.0,73,0.00,,,0.00,Wunderground v.1.15,2017-10-19 16:35:00,
2017-10-19 09:45:00,57.4,48.4,29.91,SW,219,4.0,7.0,72,0.00,,,0.00,Wunderground v.1.15,2017-10-19 16:45:00,
2017-10-19 09:55:00,57.3,49.1,29.91,South,177,3.0,4.0,74,0.00,,,0.00,Wunderground v.1.15,2017-10-19 16:55:00,
2017-10-19 10:00:00,57.9,49.3,29.91,SSE,151,3.0,3.0,73,0.00,,,0.00,Wunderground v.1.15,2017-10-19 17:00:00,
2017-10-19 10:10:00,59.3,50.3,29.91,SW,229,3.0,6.0,72,0.00,,,0.00,Wunderground v.1.15,2017-10-19 17:10:00,
2017-10-19 10:20:00,60.2,50.0,29.91,South,181,4.0,4.0,69,0.00,,,0.00,Wunderground v.1.15,2017-10-19 17:20:00,
2017-10-19 10:25:00,60.2,50.0,29.91,SE,142,4.0,4.0,69,0.00,,,0.00,Wunderground v.1.15,2017-10-19 17:25:00,
2017-10-19 10:35:00,60.4,49.8,29.91,South,190,4.0,4.0,68,0.00,,,0.00,Wunderground v.1.15,2017-10-19 17:35:00,
2017-10-19 10:45:00,61.1,49.7,29.91,WSW,242,4.0,4.0,66,0.00,,,0.00,Wunderground v.1.15,2017-10-19 17:45:00,
2017-10-19 10:55:00,61.3,49.4,29.91,SSW,199,5.0,8.0,65,0.00,,,0.00,Wunderground v.1.15,2017-10-19 17:55:00,
2017-10-19 11:05:00,61.6,50.1,29.90,SSW,192,3.0,5.0,66,0.00,,,0.00,Wunderground v.1.15,2017-10-19 18:05:00,
2017-10-19 11:15:00,62.0,50.1,29.90,SSE,164,3.0,4.0,65,0.00,,,0.00,Wunderground v.1.15,2017-10-19 18:15:00,
2017-10-19 11:25:00,62.6,50.2,29.90,SW,217,2.0,3.0,64,0.00,,,0.00,Wunderground v.1.15,2017-10-19 18:25:00,
2017-10-19 11:35:00,62.8,50.4,29.90,SSW,211,2.0,4.0,64,0.00,,,0.00,Wunderground v.1.15,2017-10-19 18:35:00,
2017-10-19 11:45:00,63.1,50.3,29.90,SSE,155,3.0,3.0,63,0.00,,,0.00,Wunderground v.1.15,2017-10-19 18:45:00,
2017-10-19 11:55:00,63.7,50.4,29.89,South,169,4.0,5.0,62,0.00,,,0.00,Wunderground v.1.15,2017-10-19 18:55:00,
2017-10-19 12:00:00,64.1,50.4,29.89,SSE,157,5.0,5.0,61,0.00,,,0.00,Wunderground v.1.15,2017-10-19 19:00:00,
2017-10-19 12:05:00,64.5,49.8,29.89,SSE,147,5.0,5.0,59,0.00,,,0.00,Wunderground v.1.15,2017-10-19 19:05:00,
2017-10-19 12:15:00,64.9,49.3,29.89,SSE,163,7.0,7.0,57,0.00,,,0.00,Wunderground v.1.15,2017-10-19 19:15:00,
2017-10-19 12:25:00,65.3,49.7,29.89,SSE,159,6.0,9.0,57,0.00,,,0.00,Wunderground v.1.15,2017-10-19 19:25:00,
2017-10-19 12:35:00,65.7,50.0,29.88,South,191,6.0,8.0,57,0.00,,,0.00,Wunderground v.1.15,2017-10-19 19:35:00,
2017-10-19 12:45:00,66.4,50.7,29.87,SSE,152,6.0,10.0,57,0.00,,,0.00,Wunderground v.1.15,2017-10-19 19:45:00,
2017-10-19 12:55:00,66.7,50.5,29.87,SSW,194,7.0,9.0,56,0.00,,,0.00,Wunderground v.1.15,2017-10-19 19:55:00,
2017-10-19 13:05:00,66.5,50.8,29.86,SE,134,7.0,10.0,57,0.00,,,0.00,Wunderground v.1.15,2017-10-19 20:05:00,
2017-10-19 13:15:00,66.4,51.2,29.85,SSW,207,6.0,7.0,58,0.00,,,0.00,Wunderground v.1.15,2017-10-19 20:15:00,
2017-10-19 13:20:00,66.9,51.2,29.85,SE,140,7.0,7.0,57,0.00,,,0.00,Wunderground v.1.15,2017-10-19 20:20:00,
2017-10-19 13:30:00,67.7,51.4,29.85,SSE,159,8.0,9.0,56,0.00,,,0.00,Wunderground v.1.15,2017-10-19 20:30:00,
2017-10-19 13:40:00,67.6,50.9,29.84,SSE,163,8.0,11.0,55,0.00,,,0.00,Wunderground v.1.15,2017-10-19 20:40:00,
2017-10-19 13:45:00,67.4,50.2,29.84,SW,221,7.0,11.0,54,0.00,,,0.00,Wunderground v.1.15,2017-10-19 20:45:00,
2017-10-19 13:55:00,67.7,50.5,29.83,SW,236,7.0,7.0,54,0.00,,,0.00,Wunderground v.1.15,2017-10-19 20:55:00,
2017-10-19 14:00:00,68.4,51.1,29.83,South,186,7.0,8.0,54,0.00,,,0.00,Wunderground v.1.15,2017-10-19 21:00:00,
2017-10-19 14:10:00,67.9,51.1,29.83,South,186,6.0,6.0,55,0.00,,,0.00,Wunderground v.1.15,2017-10-19 21:10:00,
2017-10-19 14:20:00,67.5,51.2,29.82,ESE,119,6.0,6.0,56,0.00,,,0.00,Wunderground v.1.15,2017-10-19 21:20:00,
2017-10-19 14:30:00,67.9,51.1,29.82,SSE,152,5.0,5.0,55,0.00,,,0.00,Wunderground v.1.15,2017-10-19 21:30:00,
2017-10-19 14:40:00,68.0,51.7,29.82,SW,220,6.0,7.0,56,0.00,,,0.00,Wunderground v.1.15,2017-10-19 21:40:00,
2017-10-19 14:45:00,68.3,51.5,29.82,South,175,6.0,9.0,55,0.00,,,0.00,Wunderground v.1.15,2017-10-19 21:45:00,
2017-10-19 14:55:00,68.4,52.1,29.81,South,180,5.0,5.0,56,0.00,,,0.00,Wunderground v.1.15,2017-10-19 21:55:00,
2017-10-19 15:05:00,68.8,52.5,29.81,ESE,105,5.0,6.0,56,0.00,,,0.00,Wunderground v.1.15,2017-10-19 22:05:00,
2017-10-19 15:10:00,69.1,52.7,29.80,SE,138,4.0,7.0,56,0.00,,,0.00,Wunderground v.1.15,2017-10-19 22:10:00,
2017-10-19 15:20:00,69.6,52.7,29.79,SSE,163,6.0,11.0,55,0.00,,,0.00,Wunderground v.1.15,2017-10-19 22:20:00,
2017-10-19 15:30:00,70.1,52.7,29.78,ESE,122,8.0,9.0,54,0.00,,,0.00,Wunderground v.1.15,2017-10-19 22:30:00,
2017-10-19 15:35:00,70.0,53.1,29.79,SSE,161,8.0,13.0,55,0.00,,,0.00,Wunderground v.1.15,2017-10-19 22:35:00,
2017-10-19 15:45:00,69.7,52.8,29.79,SE,134,8.0,11.0,55,0.00,,,0.00,Wunderground v.1.15,2017-10-19 22:45:00,
2017-10-19 15:55:00,70.3,53.4,29.78,SE,145,6.0,8.0,55,0.00,,,0.00,Wunderground v.1.15,2017-10-19 22:55:00,
2017-10-19 16:00:00,70.6,53.6,29.78,SSE,159,7.0,9.0,55,0.00,,,0.00,Wunderground v.1.15,2017-10-19 23:00:00,
2017-10-19 16:10:00,71.1,54.1,29.78,SE,127,6.0,9.0,55,0.00,,,0.00,Wunderground v.1.15,2017-10-19 23:10:00,
2017-10-19 16:25:00,70.9,53.4,29.77,SE,138,8.0,8.0,54,0.00,,,0.00,Wunderground v.1.15,2017-10-19 23:25:00,
2017-10-19 16:35:00,70.9,53.9,29.77,ESE,122,8.0,8.0,55,0.00,,,0.00,Wunderground v.1.15,2017-10-19 23:35:00,
2017-10-19 16:45:00,71.1,54.1,29.76,SSE,163,8.0,13.0,55,0.00,,,0.00,Wunderground v.1.15,2017-10-19 23:45:00,
2017-10-19 16:50:00,71.1,54.1,29.76,South,169,8.0,9.0,55,0.00,,,0.00,Wunderground v.1.15,2017-10-19 23:50:00,